createdAt,value
2019-01-19T00:01:02.425Z,6.50
2019-01-19T00:04:03.121Z,6.50
2019-01-19T00:07:03.394Z,7.27
2019-01-19T00:10:06.099Z,6.60
2019-01-19T00:13:02.072Z,7.63
2019-01-19T00:15:50.244Z,6.20
2019-01-19T00:19:28.247Z,6.30
2019-01-19T00:22:40.041Z,7.63
2019-01-19T00:26:09.073Z,6.80
2019-01-19T00:28:44.691Z,6.90
2019-01-19T00:31:42.058Z,7.67
2019-01-19T00:34:52.491Z,7.10
2019-01-19T00:37:46.022Z,7.60
2019-01-19T00:41:06.367Z,7.77
2019-01-19T00:43:44.196Z,7.53
2019-01-19T00:46:58.027Z,8.27
2019-01-19T00:49:39.846Z,7.70
2019-01-19T00:52:52.835Z,8.50
2019-01-19T00:56:18.755Z,7.23
2019-01-19T00:58:52.518Z,8.13
2019-01-19T01:02:06.836Z,7.50
2019-01-19T01:05:06.123Z,7.50
2019-01-19T01:08:22.979Z,6.70
2019-01-19T01:11:16.452Z,7.90
2019-01-19T01:14:29.102Z,6.43
2019-01-19T01:17:46.813Z,7.37
2019-01-19T01:20:55.161Z,6.63
2019-01-19T01:24:04.847Z,6.97
2019-01-19T01:27:18.663Z,6.80
2019-01-19T01:30:41.505Z,7.40
2019-01-19T01:33:55.101Z,7.10
2019-01-19T01:36:51.889Z,7.70
2019-01-19T01:39:56.757Z,6.67
2019-01-19T01:43:03.868Z,6.80
2019-01-19T01:46:05.010Z,8.17
2019-01-19T01:49:06.143Z,7.80
2019-01-19T01:52:34.778Z,7.10
2019-01-19T01:55:16.502Z,7.23
2019-01-19T01:58:27.314Z,6.80
2019-01-19T02:01:12.943Z,8.00
2019-01-19T02:04:45.097Z,8.87
2019-01-19T02:08:17.080Z,8.03
2019-01-19T02:11:32.851Z,8.00
2019-01-19T02:14:30.071Z,7.63
2019-01-19T02:17:46.275Z,7.90
2019-01-19T02:20:55.573Z,7.30
2019-01-19T02:23:59.665Z,8.27
2019-01-19T02:27:22.451Z,8.47
2019-01-19T02:30:45.498Z,7.83
2019-01-19T02:34:04.031Z,8.27
2019-01-19T02:37:14.803Z,9.17
2019-01-19T02:40:11.806Z,9.73
2019-01-19T02:43:34.789Z,9.77
2019-01-19T02:46:45.796Z,9.83
2019-01-19T02:49:59.352Z,9.50
2019-01-19T02:52:55.212Z,8.30
2019-01-19T02:56:17.758Z,8.33
2019-01-19T02:59:01.377Z,9.07
2019-01-19T03:02:01.525Z,8.23
2019-01-19T03:05:39.518Z,8.37
2019-01-19T03:08:42.847Z,10.30
2019-01-19T03:12:00.418Z,10.67
2019-01-19T03:15:05.657Z,11.10
2019-01-19T03:18:22.837Z,10.60
2019-01-19T03:21:32.212Z,11.23
2019-01-19T03:24:47.134Z,10.57
2019-01-19T03:28:10.751Z,10.30
2019-01-19T03:31:02.351Z,10.80
2019-01-19T03:34:08.969Z,12.57
2019-01-19T03:37:01.016Z,11.37
2019-01-19T03:40:04.878Z,10.90
2019-01-19T03:43:19.213Z,13.20
2019-01-19T03:46:18.450Z,12.10
2019-01-19T03:49:38.174Z,11.17
2019-01-19T03:52:35.246Z,11.27
2019-01-19T03:55:39.242Z,10.40
2019-01-19T03:58:59.082Z,10.80
2019-01-19T04:01:54.635Z,10.90
2019-01-19T04:04:52.926Z,11.30
2019-01-19T04:08:06.109Z,12.00
2019-01-19T04:11:12.895Z,11.37
2019-01-19T04:14:17.660Z,11.00
2019-01-19T04:17:28.381Z,12.20
2019-01-19T04:20:29.813Z,11.30
2019-01-19T04:23:03.604Z,13.17
2019-01-19T04:25:44.132Z,12.43
2019-01-19T04:28:15.971Z,12.10
2019-01-19T04:30:45.975Z,13.27
2019-01-19T04:33:16.277Z,11.73
2019-01-19T04:35:46.487Z,13.30
2019-01-19T04:38:17.528Z,12.80
2019-01-19T04:40:48.458Z,13.17
2019-01-19T04:43:18.681Z,14.30
2019-01-19T04:45:49.027Z,12.90
2019-01-19T04:48:22.611Z,14.37
2019-01-19T04:50:53.678Z,14.27
2019-01-19T04:53:24.749Z,14.53
2019-01-19T04:55:55.048Z,14.33
2019-01-19T04:58:25.617Z,13.40
2019-01-19T05:00:56.653Z,13.90
2019-01-19T05:03:27.438Z,12.03
2019-01-19T05:05:57.475Z,12.83
2019-01-19T05:08:27.742Z,11.73
2019-01-19T05:10:57.695Z,12.50
2019-01-19T05:13:27.798Z,12.60
2019-01-19T05:15:58.089Z,12.63
2019-01-19T05:18:28.066Z,11.80
2019-01-19T05:20:58.222Z,12.90
2019-01-19T05:23:28.836Z,12.03
2019-01-19T05:25:58.922Z,12.83
2019-01-19T05:28:28.901Z,14.57
2019-01-19T05:30:59.309Z,14.10
2019-01-19T05:33:29.322Z,12.40
2019-01-19T05:35:59.629Z,12.67
2019-01-19T05:38:30.377Z,11.90
2019-01-19T05:41:00.506Z,13.60
2019-01-19T05:43:31.611Z,12.30
2019-01-19T05:46:01.700Z,13.80
2019-01-19T05:48:32.026Z,14.10
2019-01-19T05:51:01.997Z,12.40
2019-01-19T05:53:31.914Z,13.47
2019-01-19T05:56:02.097Z,13.90
2019-01-19T05:58:32.024Z,13.60
2019-01-19T06:01:01.965Z,14.00
2019-01-19T06:03:31.865Z,14.97
2019-01-19T06:06:02.573Z,14.10
2019-01-19T06:08:32.588Z,15.07
2019-01-19T06:11:03.187Z,13.70
2019-01-19T06:13:33.182Z,14.47
2019-01-19T06:16:04.203Z,15.97
2019-01-19T06:18:35.555Z,14.77
2019-01-19T06:21:08.087Z,14.57
2019-01-19T06:23:38.069Z,14.17
2019-01-19T06:26:09.953Z,15.10
2019-01-19T06:28:39.901Z,15.33
2019-01-19T06:31:10.063Z,16.27
2019-01-19T06:33:40.131Z,17.53
2019-01-19T06:36:10.164Z,16.70
2019-01-19T06:38:40.209Z,15.23
2019-01-19T06:41:10.352Z,16.67
2019-01-19T06:43:40.403Z,16.20
2019-01-19T06:46:10.376Z,16.23
2019-01-19T06:48:40.797Z,14.73
2019-01-19T06:51:10.755Z,15.80
2019-01-19T06:53:41.354Z,16.13
2019-01-19T06:56:11.331Z,16.37
2019-01-19T06:58:41.568Z,16.77
2019-01-19T07:01:14.848Z,15.67
2019-01-19T07:03:44.851Z,16.27
2019-01-19T07:06:15.291Z,15.37
2019-01-19T07:08:45.303Z,16.43
2019-01-19T07:11:15.234Z,15.20
2019-01-19T07:13:45.201Z,15.67
2019-01-19T07:16:15.158Z,15.40
2019-01-19T07:18:45.159Z,14.70
2019-01-19T07:21:15.207Z,15.17
2019-01-19T07:23:45.291Z,15.50
2019-01-19T07:26:16.027Z,16.50
2019-01-19T07:28:45.962Z,13.33
2019-01-19T07:31:15.930Z,15.20
2019-01-19T07:33:45.944Z,14.63
2019-01-19T07:36:15.851Z,13.13
2019-01-19T07:38:45.798Z,15.17
2019-01-19T07:41:15.739Z,14.20
2019-01-19T07:43:45.870Z,14.23
2019-01-19T07:46:16.096Z,13.73
2019-01-19T07:48:46.026Z,13.70
2019-01-19T07:51:16.235Z,12.73
2019-01-19T07:53:46.313Z,14.53
2019-01-19T07:56:16.203Z,14.40
2019-01-19T07:58:46.141Z,14.67
2019-01-19T08:01:16.104Z,13.83
2019-01-19T08:03:46.083Z,12.73
2019-01-19T08:06:16.029Z,13.90
2019-01-19T08:08:46.186Z,13.87
2019-01-19T08:11:16.150Z,12.87
2019-01-19T08:13:46.117Z,12.73
2019-01-19T08:16:16.049Z,12.67
2019-01-19T08:18:46.609Z,14.67
2019-01-19T08:21:16.666Z,13.50
2019-01-19T08:23:46.981Z,11.63
2019-01-19T08:26:17.089Z,13.23
2019-01-19T08:28:47.049Z,12.90
2019-01-19T08:31:17.973Z,12.70
2019-01-19T08:33:47.997Z,12.00
2019-01-19T08:36:18.417Z,12.93
2019-01-19T08:38:48.359Z,11.63
2019-01-19T08:41:18.309Z,12.30
2019-01-19T08:43:52.120Z,10.60
2019-01-19T08:46:22.002Z,10.53
2019-01-19T08:48:52.070Z,11.23
2019-01-19T08:51:22.037Z,9.60
2019-01-19T08:53:52.246Z,9.73
2019-01-19T08:56:22.254Z,10.57
2019-01-19T08:58:52.292Z,10.87
2019-01-19T09:01:22.334Z,10.57
2019-01-19T09:03:53.725Z,9.93
2019-01-19T09:06:24.141Z,10.50
2019-01-19T09:08:54.297Z,9.93
2019-01-19T09:11:24.454Z,10.20
2019-01-19T09:13:54.714Z,11.83
2019-01-19T09:16:24.902Z,10.23
2019-01-19T09:18:55.070Z,11.90
2019-01-19T09:21:25.046Z,12.10
2019-01-19T09:24:19.765Z,11.80
2019-01-19T09:26:51.091Z,14.00
2019-01-19T09:29:21.103Z,14.37
2019-01-19T09:31:54.441Z,15.00
2019-01-19T09:34:24.597Z,15.43
2019-01-19T09:36:54.569Z,15.20
2019-01-19T09:39:24.972Z,16.10
2019-01-19T09:41:54.914Z,16.00
2019-01-19T09:44:24.951Z,15.90
2019-01-19T09:46:54.885Z,14.90
2019-01-19T09:49:25.631Z,15.20
2019-01-19T09:51:55.630Z,15.80
2019-01-19T09:54:25.622Z,15.77
2019-01-19T09:56:55.699Z,17.57
2019-01-19T09:59:25.898Z,14.30
2019-01-19T10:01:56.342Z,15.17
2019-01-19T10:04:26.652Z,14.70
2019-01-19T10:06:56.889Z,14.93
2019-01-19T10:09:26.989Z,14.63
2019-01-19T10:11:57.359Z,14.47
2019-01-19T10:14:27.336Z,14.97
2019-01-19T10:16:57.404Z,14.33
2019-01-19T10:19:28.501Z,14.87
2019-01-19T10:21:58.536Z,15.57
2019-01-19T10:24:28.540Z,13.63
2019-01-19T10:26:58.926Z,14.87
2019-01-19T10:29:30.607Z,15.73
2019-01-19T10:32:00.941Z,14.33
2019-01-19T10:34:31.383Z,15.20
2019-01-19T10:37:01.562Z,14.97
2019-01-19T10:39:32.853Z,13.03
2019-01-19T10:42:03.319Z,13.20
2019-01-19T10:44:33.349Z,12.30
2019-01-19T10:47:03.681Z,12.20
2019-01-19T10:49:33.676Z,14.33
2019-01-19T10:52:03.870Z,13.13
2019-01-19T10:54:33.869Z,13.07
2019-01-19T10:57:04.163Z,13.50
2019-01-19T10:59:34.317Z,12.90
2019-01-19T11:02:05.102Z,12.73
2019-01-19T11:04:35.100Z,13.10
2019-01-19T11:07:05.216Z,12.80
2019-01-19T11:09:35.219Z,13.60
2019-01-19T11:12:05.310Z,12.87
2019-01-19T11:14:35.267Z,12.70
2019-01-19T11:17:05.518Z,10.93
2019-01-19T11:19:35.537Z,9.87
2019-01-19T11:22:05.609Z,10.07
2019-01-19T11:24:35.544Z,11.90
2019-01-19T11:27:08.481Z,12.53
2019-01-19T11:29:38.429Z,11.90
2019-01-19T11:32:08.565Z,11.53
2019-01-19T11:34:38.662Z,12.50
2019-01-19T11:37:08.641Z,13.10
2019-01-19T11:39:38.653Z,12.67
2019-01-19T11:42:08.713Z,13.87
2019-01-19T11:44:39.209Z,13.40
2019-01-19T11:47:09.237Z,14.10
2019-01-19T11:49:39.529Z,13.30
2019-01-19T11:52:09.682Z,13.57
2019-01-19T11:54:39.994Z,13.47
2019-01-19T11:57:09.973Z,12.87
2019-01-19T11:59:40.057Z,13.27
2019-01-19T12:02:10.177Z,14.97
2019-01-19T12:04:40.169Z,15.53
2019-01-19T12:07:10.101Z,15.30
2019-01-19T12:09:41.161Z,14.50
2019-01-19T12:12:11.382Z,15.47
2019-01-19T12:14:41.370Z,15.80
2019-01-19T12:17:11.369Z,14.93
2019-01-19T12:19:41.369Z,15.57
2019-01-19T12:22:11.314Z,14.83
2019-01-19T12:24:41.293Z,16.47
2019-01-19T12:27:11.391Z,15.40
2019-01-19T12:29:41.473Z,14.63
2019-01-19T12:32:14.533Z,15.93
2019-01-19T12:34:44.592Z,16.90
2019-01-19T12:37:15.102Z,14.67
2019-01-19T12:39:45.273Z,17.00
2019-01-19T12:42:34.201Z,17.40
2019-01-19T12:45:04.473Z,16.47
2019-01-19T12:47:34.550Z,16.40
2019-01-19T12:50:04.934Z,16.10
2019-01-19T12:52:34.908Z,15.53
2019-01-19T12:55:06.562Z,16.77
2019-01-19T12:57:36.517Z,15.50
2019-01-19T13:00:07.717Z,17.43
2019-01-19T13:02:37.869Z,17.47
2019-01-19T13:05:12.885Z,16.20
2019-01-19T13:07:42.958Z,15.13
2019-01-19T13:10:17.831Z,16.00
2019-01-19T13:12:59.910Z,16.53
2019-01-19T13:16:12.381Z,17.63
2019-01-19T13:19:07.456Z,16.53
2019-01-19T13:22:39.057Z,17.33
2019-01-19T13:25:58.941Z,15.80
2019-01-19T13:29:11.425Z,15.37
2019-01-19T13:32:10.870Z,15.43
2019-01-19T13:35:26.273Z,16.60
2019-01-19T13:38:26.279Z,15.97
2019-01-19T13:41:31.557Z,15.33
2019-01-19T13:44:34.489Z,15.77
2019-01-19T13:47:51.741Z,15.67
2019-01-19T13:51:11.321Z,15.63
2019-01-19T13:54:16.464Z,15.17
2019-01-19T13:57:13.475Z,17.67
2019-01-19T14:00:06.755Z,17.47
2019-01-19T14:03:06.238Z,22.07
2019-01-19T14:06:28.888Z,32.37
2019-01-19T14:09:39.794Z,17.93
2019-01-19T14:12:35.458Z,24.80
2019-01-19T14:15:48.473Z,18.53
2019-01-19T14:18:54.689Z,25.30
2019-01-19T14:22:14.566Z,19.17
2019-01-19T14:25:29.704Z,24.40
2019-01-19T14:28:49.818Z,23.27
2019-01-19T14:32:09.915Z,26.03
2019-01-19T14:35:18.823Z,28.40
2019-01-19T14:38:48.409Z,27.17
2019-01-19T14:42:04.481Z,28.87
2019-01-19T14:45:08.980Z,23.27
2019-01-19T14:48:11.907Z,27.70
2019-01-19T14:51:25.745Z,21.00
2019-01-19T14:54:51.478Z,20.00
2019-01-19T14:57:52.425Z,16.80
2019-01-19T15:00:55.003Z,15.27
2019-01-19T15:04:05.885Z,15.87
2019-01-19T15:07:19.394Z,16.53
2019-01-19T15:10:22.633Z,16.63
2019-01-19T15:13:24.577Z,16.00
2019-01-19T15:16:37.065Z,16.23
2019-01-19T15:19:45.065Z,15.30
2019-01-19T15:22:42.645Z,15.80
2019-01-19T15:25:36.618Z,15.30
2019-01-19T15:28:38.616Z,16.20
2019-01-19T15:31:31.214Z,14.70
2019-01-19T15:34:35.269Z,16.60
2019-01-19T15:37:30.178Z,16.47
2019-01-19T15:40:17.314Z,17.03
2019-01-19T15:43:17.775Z,19.60
2019-01-19T15:46:23.641Z,19.20
2019-01-19T15:49:35.150Z,17.13
2019-01-19T15:52:27.818Z,16.57
2019-01-19T15:55:21.394Z,17.10
2019-01-19T15:58:14.286Z,15.30
2019-01-19T16:01:37.178Z,15.50
2019-01-19T16:04:43.834Z,16.13
2019-01-19T16:08:07.297Z,15.60
2019-01-19T16:11:21.419Z,17.80
2019-01-19T16:14:31.374Z,17.07
2019-01-19T16:17:36.313Z,15.37
2019-01-19T16:20:42.601Z,18.20
2019-01-19T16:23:57.535Z,17.10
2019-01-19T16:27:06.812Z,16.93
2019-01-19T16:30:14.197Z,15.50
2019-01-19T16:33:31.249Z,16.20
2019-01-19T16:36:36.029Z,13.33
2019-01-19T16:39:52.778Z,16.83
2019-01-19T16:43:15.757Z,16.60
2019-01-19T16:46:22.284Z,17.83
2019-01-19T16:49:54.722Z,18.50
2019-01-19T16:53:13.381Z,15.23
2019-01-19T16:56:18.366Z,15.63
2019-01-19T16:59:47.714Z,14.10
2019-01-19T17:02:32.485Z,15.53
2019-01-19T17:05:41.202Z,15.90
2019-01-19T17:08:46.983Z,16.27
2019-01-19T17:12:05.578Z,16.77
2019-01-19T17:15:13.319Z,16.27
2019-01-19T17:18:08.531Z,16.80
2019-01-19T17:21:30.230Z,15.83
2019-01-19T17:24:36.651Z,15.83
2019-01-19T17:27:35.714Z,15.80
2019-01-19T17:30:56.014Z,17.20
2019-01-19T17:33:49.004Z,15.50
2019-01-19T17:36:43.912Z,16.50
2019-01-19T17:39:54.083Z,16.10
2019-01-19T17:43:06.512Z,16.03
2019-01-19T17:46:01.131Z,14.00
2019-01-19T17:48:45.945Z,15.37
2019-01-19T17:52:14.857Z,14.80
2019-01-19T17:55:07.853Z,13.67
2019-01-19T17:57:54.086Z,13.80
2019-01-19T18:01:14.385Z,13.37
2019-01-19T18:04:09.418Z,14.97
2019-01-19T18:07:28.949Z,13.57
2019-01-19T18:10:30.395Z,13.47
2019-01-19T18:13:25.030Z,13.57
2019-01-19T18:16:47.842Z,14.10
2019-01-19T18:19:37.394Z,12.63
2019-01-19T18:22:38.760Z,12.80
2019-01-19T18:25:29.073Z,12.73
2019-01-19T18:28:41.410Z,12.90
2019-01-19T18:32:03.618Z,14.13
2019-01-19T18:35:06.685Z,13.50
2019-01-19T18:38:17.181Z,12.80
2019-01-19T18:41:18.247Z,12.27
2019-01-19T18:44:17.428Z,13.70
2019-01-19T18:47:46.567Z,13.50
2019-01-19T18:51:11.354Z,12.20
2019-01-19T18:54:31.194Z,12.03
2019-01-19T18:57:37.419Z,12.13
2019-01-19T19:00:27.316Z,13.83
2019-01-19T19:03:34.028Z,14.00
2019-01-19T19:06:39.865Z,12.97
2019-01-19T19:09:39.317Z,12.87
2019-01-19T19:13:07.957Z,12.90
2019-01-19T19:16:31.985Z,12.47
2019-01-19T19:19:38.578Z,12.00
2019-01-19T19:23:16.362Z,12.10
2019-01-19T19:26:14.511Z,12.53
2019-01-19T19:29:10.978Z,12.47
2019-01-19T19:32:07.012Z,13.80
2019-01-19T19:35:05.059Z,13.80
2019-01-19T19:38:14.561Z,13.40
2019-01-19T19:41:15.662Z,12.97
2019-01-19T19:44:23.981Z,14.00
2019-01-19T19:47:26.902Z,13.10
2019-01-19T19:50:36.357Z,13.07
2019-01-19T19:53:08.047Z,12.30
2019-01-19T19:55:36.428Z,13.30
2019-01-19T19:58:06.532Z,12.50
2019-01-19T20:00:36.522Z,12.77
2019-01-19T20:03:06.938Z,12.60
2019-01-19T20:05:37.226Z,12.23
2019-01-19T20:08:08.809Z,12.67
2019-01-19T20:10:39.058Z,11.70
2019-01-19T20:13:09.440Z,13.13
2019-01-19T20:15:39.537Z,12.70
2019-01-19T20:18:09.941Z,12.53
2019-01-19T20:20:39.990Z,12.23
2019-01-19T20:23:10.213Z,13.07
2019-01-19T20:25:43.558Z,12.80
2019-01-19T20:28:18.670Z,12.50
2019-01-19T20:30:48.848Z,12.43
2019-01-19T20:33:20.186Z,12.73
2019-01-19T20:35:52.914Z,13.10
2019-01-19T20:38:23.252Z,14.60
2019-01-19T20:40:53.289Z,14.10
2019-01-19T20:43:23.246Z,13.50
2019-01-19T20:45:56.533Z,11.63
2019-01-19T20:48:28.314Z,12.30
2019-01-19T20:51:09.165Z,11.47
2019-01-19T20:53:39.301Z,11.60
2019-01-19T20:56:09.401Z,11.77
2019-01-19T20:58:39.363Z,12.80
2019-01-19T21:01:09.667Z,12.23
2019-01-19T21:03:44.866Z,12.07
2019-01-19T21:06:16.209Z,11.83
2019-01-19T21:08:46.147Z,11.80
2019-01-19T21:11:18.975Z,11.70
2019-01-19T21:13:51.525Z,11.93
2019-01-19T21:16:21.704Z,11.93
2019-01-19T21:18:51.765Z,11.30
2019-01-19T21:21:21.703Z,11.27
2019-01-19T21:23:51.882Z,13.30
2019-01-19T21:26:22.269Z,11.30
2019-01-19T21:28:56.837Z,11.43
2019-01-19T21:31:26.809Z,12.03
2019-01-19T21:33:57.138Z,11.47
2019-01-19T21:36:27.177Z,11.47
2019-01-19T21:38:57.182Z,9.67
2019-01-19T21:41:27.397Z,10.87
2019-01-19T21:43:59.161Z,10.80
2019-01-19T21:46:29.922Z,10.83
2019-01-19T21:49:01.644Z,11.23
2019-01-19T21:51:35.517Z,11.00
2019-01-19T21:54:06.176Z,10.00
2019-01-19T21:56:36.246Z,10.07
2019-01-19T21:59:06.437Z,12.40
2019-01-19T22:01:36.724Z,12.83
2019-01-19T22:04:07.074Z,9.90
2019-01-19T22:06:37.053Z,10.43
2019-01-19T22:09:08.961Z,8.90
2019-01-19T22:11:41.013Z,9.40
2019-01-19T22:14:11.643Z,8.13
2019-01-19T22:16:41.635Z,8.50
2019-01-19T22:19:11.731Z,8.80
2019-01-19T22:21:42.148Z,9.03
2019-01-19T22:24:16.041Z,9.50
2019-01-19T22:26:49.186Z,8.80
2019-01-19T22:29:19.323Z,9.40
2019-01-19T22:31:49.262Z,8.77
2019-01-19T22:34:20.079Z,8.53
2019-01-19T22:36:50.074Z,8.43
2019-01-19T22:39:20.101Z,7.47
2019-01-19T22:41:49.977Z,7.97
2019-01-19T22:44:20.004Z,10.67
2019-01-19T22:46:50.122Z,9.63
2019-01-19T22:49:25.793Z,8.10
2019-01-19T22:51:55.919Z,7.47
2019-01-19T22:54:26.373Z,7.57
2019-01-19T22:56:56.730Z,8.23
2019-01-19T22:59:26.760Z,7.73
2019-01-19T23:02:03.365Z,6.97
2019-01-19T23:04:33.889Z,8.50
2019-01-19T23:07:03.827Z,7.67
2019-01-19T23:09:34.333Z,8.00
2019-01-19T23:12:06.866Z,7.60
2019-01-19T23:14:37.236Z,7.00
2019-01-19T23:17:07.205Z,7.67
2019-01-19T23:19:37.109Z,7.07
2019-01-19T23:22:07.368Z,6.83
2019-01-19T23:24:37.369Z,7.20
2019-01-19T23:27:07.970Z,7.30
2019-01-19T23:29:38.472Z,9.07
2019-01-19T23:32:08.721Z,7.63
2019-01-19T23:34:38.903Z,6.83
2019-01-19T23:37:09.449Z,6.33
2019-01-19T23:39:39.847Z,6.37
2019-01-19T23:42:09.853Z,6.90
2019-01-19T23:44:40.126Z,6.30
2019-01-19T23:47:10.296Z,7.50
2019-01-19T23:49:40.201Z,7.37
2019-01-19T23:52:10.240Z,7.00
2019-01-19T23:54:40.213Z,7.93
2019-01-19T23:57:10.269Z,8.60
2019-01-19T23:59:40.250Z,9.07
